首页
METAR-TAF:

METAR-TAF

机场 :

Chesapeake Regional Airport

諾福克, 弗吉尼亚州, 美国

纬度: 36-39-56N, 经度: 076-19-14W, 海拔: 6米

当前天气观测

该预报发布于16小时和23分钟前的09:35 UTC
风速23节,风向南转南东,有时为34节阵风
温度 26°C
湿度 84%
气压 1002 hPa
能見度: 11.3公里
多云层高于2200英尺
阴天层高于2600英尺
小雨

METAR: KCPK 040935Z AUTO 15023G34KT 7SM -RA BKN022 OVC026 26/23 A2958 RMK AO2 T02600232

时间: 21:58 (01:58 UTC)


TAF: 丢失

超过4000个机场的气象观测和天气预报(METAR&TAF报告)。

可查询的气象台以黄色和红色小点在地图上表示。

将鼠标移到小点上方,可查看气象台名称。

然后点击查看天气观测和预报。

如需切换地图:点击带黑十字的绿色按钮放大地图;点击带横线的绿色按钮缩小地图;或者点击绿色箭头查看邻近地区的地图。


METAR-TAF: